Salamanca, New York
Current Conditions -  °F | °C
As of 11:55 AM on Sunday 23 Nov 2014 (Local Time) from KOLE Reporting Station
Light Rain Light Rain  
Wind Chill: 36°   Ceiling: 7000
Heat Index: 39°   Visibility: 10mi
Dew Point: 39°   Wind: 5mph
Humidity: 100%   Direction: 200°SSW
Pressure: 30.04"   Gusts: NA
Location:  42.15°N, 78.71°W
Report Text: KOLE 231655Z AUTO 20004KT 10SM -RA SCT040 SCT050 OVC070 04/04 A3004 RMK AO2
Loading
Personal Weather Stations






























Interactive Weather Map New forecast layout! Learn more

10-Day Weather Forecast

Advertisements
Track Severe Weather on mobile